EDT,Max TemperatureF,Mean TemperatureF,Min TemperatureF,Max Dew PointF,MeanDew PointF,Min DewpointF,Max Humidity, Mean Humidity, Min Humidity, Max Sea Level PressureIn, Mean Sea Level PressureIn, Min Sea Level PressureIn, Max VisibilityMiles, Mean VisibilityMiles, Min VisibilityMiles, Max Wind SpeedMPH, Mean Wind SpeedMPH, Max Gust SpeedMPH,PrecipitationIn, CloudCover, Events, WindDirDegrees
2012-10-1,87,81,75,76,75,73,100,88,65,29.90,29.84,29.79,10,8,2,13,6,22,1.17,6,Rain-Thunderstorm,165
2012-10-2,88,80,73,76,74,72,100,86,66,30.08,29.96,29.88,10,9,2,24,6,33,1.21,5,Rain,196
2012-10-3,90,84,77,78,76,74,94,79,63,30.17,30.11,30.06,10,10,10,15,6,20,0.04,2,Rain,112
2012-10-4,89,85,81,78,76,70,88,75,63,30.16,30.12,30.06,10,10,10,13,8,22,0.00,3,Rain,85
2012-10-5,89,85,81,76,74,71,85,74,59,30.10,30.02,29.95,10,10,10,13,8,16,0.00,2,,81
2012-10-6,89,83,78,75,74,71,89,76,59,29.98,29.93,29.88,10,10,5,15,4,22,0.01,3,Rain-Thunderstorm,69
2012-10-7,87,80,73,76,73,71,94,84,65,29.99,29.95,29.88,10,9,2,16,8,,1.09,3,Rain-Thunderstorm,49
2012-10-8,87,80,75,76,75,72,94,84,67,30.03,29.97,29.93,10,10,10,9,2,,0.23,3,Rain-Thunderstorm,96
2012-10-9,90,83,77,76,75,71,96,81,57,30.03,29.99,29.96,10,8,0,12,2,,0.01,3,Fog,51
2012-10-10,87,82,77,75,73,70,90,77,65,30.07,30.03,29.99,10,10,10,14,4,18,0.01,3,,33
2012-10-11,86,78,73,71,67,64,87,67,51,30.13,30.08,30.04,10,10,10,15,6,23,0.00,2,,16
2012-10-12,86,80,75,66,64,62,71,57,47,30.12,30.08,30.05,10,10,10,16,9,26,0.00,2,,23
2012-10-13,84,78,72,71,67,64,87,66,51,30.11,30.07,30.03,10,10,10,20,10,30,0.03,4,,34
2012-10-14,84,81,78,75,72,69,89,74,67,30.04,29.99,29.94,10,10,2,22,14,30,0.35,5,Rain,61
2012-10-15,88,84,78,74,72,70,84,72,59,29.94,29.86,29.80,10,10,10,14,8,17,0.03,2,,50
2012-10-16,89,80,73,72,70,67,93,72,51,29.86,29.82,29.78,10,10,10,13,4,,0.00,1,,20
2012-10-17,87,78,71,75,71,69,97,80,61,29.91,29.86,29.82,10,8,1,15,5,25,1.20,5,Rain,117
2012-10-18,91,82,75,75,73,70,94,79,53,29.90,29.86,29.82,10,10,10,12,4,,0.00,3,,165
2012-10-19,86,80,75,77,74,69,97,82,61,29.91,29.87,29.82,10,10,8,12,2,,0.04,3,Rain-Thunderstorm,138
2012-10-20,87,78,73,74,71,69,97,78,59,29.95,29.90,29.86,10,10,8,14,4,,0.00,2,,360
2012-10-21,86,78,73,70,63,60,87,61,46,30.01,29.97,29.91,10,10,10,10,5,21,0.00,1,,23
2012-10-22,84,78,73,66,63,61,66,58,47,30.03,29.99,29.96,10,10,10,21,9,26,0.00,2,,55
2012-10-23,84,80,75,70,66,62,79,63,55,29.99,29.96,29.93,10,10,10,23,14,28,0.00,3,,60
2012-10-24,86,78,73,73,70,65,94,73,54,29.95,29.89,29.85,10,9,3,24,14,33,0.36,5,Rain,60
2012-10-25,82,78,73,75,71,68,97,80,69,29.84,29.76,29.65,10,9,1,28,14,38,0.80,7,Rain,51
2012-10-26,81,76,71,72,69,66,96,84,62,29.62,29.55,29.49,10,9,2,20,12,33,0.56,7,Rain,327
2012-10-27,84,77,70,67,63,58,83,67,44,29.70,29.57,29.50,10,10,10,24,16,38,0.00,3,,290
2012-10-28,82,76,68,66,61,57,90,67,45,29.80,29.73,29.69,10,10,10,20,12,28,0.00,2,,286
2012-10-29,73,66,59,56,48,40,75,55,31,29.88,29.82,29.77,10,10,10,18,13,26,0.00,1,,285
2012-10-30,73,64,55,50,46,40,80,56,38,30.01,29.92,29.85,10,10,10,20,8,26,0.00,0,,278
2012-10-31,73,64,55,57,53,47,93,68,44,30.08,30.04,30.00,10,10,10,12,2,18,0.00,0,,274